createdAt,value
2018-08-09T00:00:21.413Z,24.00
2018-08-09T00:02:49.577Z,23.90
2018-08-09T00:05:17.746Z,23.90
2018-08-09T00:07:46.539Z,23.80
2018-08-09T00:10:14.722Z,23.70
2018-08-09T00:12:43.128Z,23.70
2018-08-09T00:15:11.365Z,23.60
2018-08-09T00:17:39.559Z,23.50
2018-08-09T00:20:07.732Z,23.40
2018-08-09T00:22:35.902Z,23.30
2018-08-09T00:25:04.555Z,23.30
2018-08-09T00:27:32.730Z,23.30
2018-08-09T00:30:00.894Z,23.30
2018-08-09T00:32:29.063Z,23.20
2018-08-09T00:34:57.227Z,23.20
2018-08-09T00:37:25.410Z,23.20
2018-08-09T00:39:53.570Z,23.20
2018-08-09T00:42:21.742Z,23.10
2018-08-09T00:44:50.150Z,23.10
2018-08-09T00:47:18.322Z,23.00
2018-08-09T00:49:47.228Z,22.90
2018-08-09T00:52:15.437Z,22.80
2018-08-09T00:54:43.910Z,22.80
2018-08-09T00:57:12.095Z,22.80
2018-08-09T00:59:40.257Z,22.70
2018-08-09T01:02:08.442Z,22.60
2018-08-09T01:04:36.614Z,22.60
2018-08-09T01:07:04.815Z,22.50
2018-08-09T01:09:32.981Z,22.50
2018-08-09T01:12:01.422Z,22.40
2018-08-09T01:14:29.593Z,22.40
2018-08-09T01:16:57.746Z,22.30
2018-08-09T01:19:25.923Z,22.30
2018-08-09T01:21:54.091Z,22.20
2018-08-09T01:24:22.266Z,22.20
2018-08-09T01:26:50.443Z,22.10
2018-08-09T01:29:18.610Z,22.00
2018-08-09T01:31:46.807Z,22.00
2018-08-09T01:34:15.020Z,22.00
2018-08-09T01:36:43.194Z,22.00
2018-08-09T01:39:12.727Z,22.00
2018-08-09T01:41:58.055Z,22.00
2018-08-09T01:44:26.230Z,22.00
2018-08-09T01:46:54.389Z,21.90
2018-08-09T01:49:22.563Z,21.90
2018-08-09T01:51:50.726Z,21.90
2018-08-09T01:54:18.891Z,21.80
2018-08-09T01:56:47.059Z,21.80
2018-08-09T01:59:15.226Z,21.80
2018-08-09T02:01:43.526Z,21.70
2018-08-09T02:04:12.342Z,21.70
2018-08-09T02:06:40.518Z,21.70
2018-08-09T02:09:10.576Z,21.70
2018-08-09T02:11:38.771Z,21.60
2018-08-09T02:14:06.966Z,21.60
2018-08-09T02:16:35.161Z,21.50
2018-08-09T02:19:03.342Z,21.50
2018-08-09T02:21:31.514Z,21.60
2018-08-09T02:23:59.690Z,21.50
2018-08-09T02:26:27.854Z,21.50
2018-08-09T02:28:56.022Z,21.50
2018-08-09T02:31:24.183Z,21.50
2018-08-09T02:33:52.351Z,21.40
2018-08-09T02:36:20.513Z,21.40
2018-08-09T02:38:48.691Z,21.30
2018-08-09T02:41:16.857Z,21.30
2018-08-09T02:43:45.257Z,21.30
2018-08-09T02:46:13.435Z,21.30
2018-08-09T02:48:41.615Z,21.20
2018-08-09T02:51:10.756Z,21.20
2018-08-09T02:53:38.940Z,21.20
2018-08-09T02:56:07.131Z,21.20
2018-08-09T02:58:35.286Z,21.10
2018-08-09T03:01:03.463Z,21.10
2018-08-09T03:03:31.991Z,21.10
2018-08-09T03:06:00.161Z,21.00
2018-08-09T03:08:28.318Z,21.00
2018-08-09T03:10:56.492Z,21.00
2018-08-09T03:13:24.663Z,20.90
2018-08-09T03:15:52.846Z,20.90
2018-08-09T03:18:21.058Z,20.90
2018-08-09T03:20:49.255Z,20.90
2018-08-09T03:23:17.427Z,20.90
2018-08-09T03:25:45.590Z,20.90
2018-08-09T03:28:13.794Z,20.80
2018-08-09T03:30:42.025Z,20.80
2018-08-09T03:33:10.208Z,20.80
2018-08-09T03:35:38.386Z,20.80
2018-08-09T03:38:06.546Z,20.80
2018-08-09T03:40:34.719Z,20.80
2018-08-09T03:43:02.878Z,20.80
2018-08-09T03:45:31.046Z,20.80
2018-08-09T03:47:59.207Z,20.80
2018-08-09T03:50:27.383Z,20.80
2018-08-09T03:52:55.546Z,20.80
2018-08-09T03:55:23.718Z,20.80
2018-08-09T03:57:51.890Z,20.80
2018-08-09T04:00:20.064Z,20.80
2018-08-09T04:02:48.226Z,20.80
2018-08-09T04:05:16.398Z,20.80
2018-08-09T04:07:44.854Z,20.80
2018-08-09T04:10:13.060Z,20.80
2018-08-09T04:12:41.264Z,20.90
2018-08-09T04:15:10.707Z,20.90
2018-08-09T04:17:38.874Z,20.90
2018-08-09T04:20:07.094Z,20.90
2018-08-09T04:22:35.257Z,20.90
2018-08-09T04:25:03.503Z,20.90
2018-08-09T04:27:31.670Z,21.00
2018-08-09T04:29:59.835Z,21.00
2018-08-09T04:32:28.066Z,21.00
2018-08-09T04:34:56.222Z,21.00
2018-08-09T04:37:25.199Z,21.10
2018-08-09T04:39:53.366Z,21.10
2018-08-09T04:42:21.778Z,21.20
2018-08-09T04:44:50.219Z,21.20
2018-08-09T04:47:18.702Z,21.20
2018-08-09T04:49:46.908Z,21.30
2018-08-09T04:52:15.120Z,21.30
2018-08-09T04:54:43.298Z,21.40
2018-08-09T04:57:11.487Z,21.40
2018-08-09T04:59:39.650Z,21.50
2018-08-09T05:02:08.237Z,21.60
2018-08-09T05:04:36.406Z,21.60
2018-08-09T05:07:05.075Z,21.60
2018-08-09T05:09:33.247Z,21.70
2018-08-09T05:12:01.423Z,21.80
2018-08-09T05:14:30.395Z,21.90
2018-08-09T05:16:58.783Z,21.90
2018-08-09T05:19:27.271Z,22.00
2018-08-09T05:21:55.446Z,22.10
2018-08-09T05:24:23.610Z,22.20
2018-08-09T05:26:51.782Z,22.30
2018-08-09T05:29:19.946Z,22.40
2018-08-09T05:31:48.158Z,22.50
2018-08-09T05:34:16.428Z,22.60
2018-08-09T05:36:44.697Z,22.70
2018-08-09T05:39:12.857Z,22.80
2018-08-09T05:41:41.581Z,22.90
2018-08-09T05:44:09.762Z,23.00
2018-08-09T05:46:38.338Z,23.00
2018-08-09T05:49:06.602Z,23.10
2018-08-09T05:51:34.784Z,23.20
2018-08-09T05:54:03.630Z,23.20
2018-08-09T05:56:32.050Z,23.30
2018-08-09T05:59:00.230Z,23.30
2018-08-09T06:01:28.406Z,23.40
2018-08-09T06:03:56.899Z,23.40
2018-08-09T06:06:25.071Z,23.40
2018-08-09T06:08:53.256Z,23.50
2018-08-09T06:11:21.438Z,23.60
2018-08-09T06:13:49.623Z,23.60
2018-08-09T06:16:17.847Z,23.70
2018-08-09T06:18:46.121Z,23.80
2018-08-09T06:21:14.244Z,23.80
2018-08-09T06:23:42.414Z,23.90
2018-08-09T06:26:10.867Z,23.90
2018-08-09T06:28:39.088Z,24.00
2018-08-09T06:31:07.296Z,24.00
2018-08-09T06:33:35.639Z,24.10
2018-08-09T06:36:03.668Z,24.10
2018-08-09T06:38:31.843Z,24.10
2018-08-09T06:41:00.378Z,24.10
2018-08-09T06:43:28.560Z,24.20
2018-08-09T06:45:56.719Z,24.30
2018-08-09T06:48:24.893Z,24.30
2018-08-09T06:50:53.065Z,24.40
2018-08-09T06:53:21.235Z,24.50
2018-08-09T06:55:49.493Z,24.50
2018-08-09T06:58:17.812Z,24.60
2018-08-09T07:00:46.264Z,24.70
2018-08-09T07:03:14.473Z,24.80
2018-08-09T07:05:42.679Z,24.80
2018-08-09T07:08:10.858Z,24.90
2018-08-09T07:10:39.038Z,25.00
2018-08-09T07:13:07.219Z,25.10
2018-08-09T07:15:36.274Z,25.20
2018-08-09T07:18:04.681Z,25.20
2018-08-09T07:20:32.847Z,25.30
2018-08-09T07:23:01.030Z,25.40
2018-08-09T07:25:29.195Z,25.50
2018-08-09T07:27:57.372Z,25.60
2018-08-09T07:30:25.537Z,25.70
2018-08-09T07:32:53.710Z,25.70
2018-08-09T07:35:22.226Z,25.80
2018-08-09T07:37:50.419Z,25.80
2018-08-09T07:40:18.594Z,25.90
2018-08-09T07:42:46.808Z,25.90
2018-08-09T07:45:15.056Z,26.10
2018-08-09T07:47:43.281Z,26.20
2018-08-09T07:50:11.500Z,26.30
2018-08-09T07:52:39.849Z,26.40
2018-08-09T07:55:09.555Z,26.50
2018-08-09T07:57:38.386Z,26.60
2018-08-09T08:00:08.671Z,26.80
2018-08-09T08:02:37.394Z,26.80
2018-08-09T08:05:05.726Z,26.90
2018-08-09T08:07:34.127Z,26.90
2018-08-09T08:10:02.484Z,27.00
2018-08-09T08:12:30.647Z,27.10
2018-08-09T08:14:58.847Z,27.20
2018-08-09T08:17:26.994Z,27.20
2018-08-09T08:19:55.169Z,27.30
2018-08-09T08:22:23.674Z,27.30
2018-08-09T08:24:51.859Z,27.40
2018-08-09T08:27:20.083Z,27.40
2018-08-09T08:29:48.267Z,27.40
2018-08-09T08:32:16.464Z,27.40
2018-08-09T08:34:44.928Z,27.60
2018-08-09T08:37:13.106Z,27.80
2018-08-09T08:39:41.286Z,27.90
2018-08-09T08:42:09.457Z,28.10
2018-08-09T08:44:37.627Z,28.20
2018-08-09T08:47:05.798Z,28.30
2018-08-09T08:49:33.963Z,28.40
2018-08-09T08:52:02.382Z,28.50
2018-08-09T08:54:30.554Z,28.60
2018-08-09T08:56:58.720Z,28.70
2018-08-09T08:59:26.890Z,28.80
2018-08-09T09:01:55.055Z,28.90
2018-08-09T09:04:23.256Z,29.00
2018-08-09T09:06:51.428Z,29.10
2018-08-09T09:09:19.597Z,29.20
2018-08-09T09:11:47.765Z,29.30
2018-08-09T09:14:15.938Z,29.50
2018-08-09T09:16:44.116Z,29.50
2018-08-09T09:19:12.314Z,29.60
2018-08-09T09:21:40.507Z,29.70
2018-08-09T09:24:08.735Z,29.80
2018-08-09T09:26:36.898Z,29.90
2018-08-09T09:29:05.094Z,29.70
2018-08-09T09:31:33.278Z,29.80
2018-08-09T09:34:01.462Z,30.00
2018-08-09T09:36:29.660Z,30.10
2018-08-09T09:38:58.118Z,30.30
2018-08-09T09:41:26.341Z,30.20
2018-08-09T09:43:54.506Z,30.30
2018-08-09T09:46:22.738Z,30.00
2018-08-09T09:48:50.909Z,30.20
2018-08-09T09:51:19.647Z,30.40
2018-08-09T09:53:48.054Z,30.60
2018-08-09T09:56:16.222Z,30.70
2018-08-09T09:58:44.383Z,30.80
2018-08-09T10:01:18.076Z,30.90
2018-08-09T10:03:46.243Z,31.00
2018-08-09T10:06:14.415Z,31.20
2018-08-09T10:08:42.574Z,31.30
2018-08-09T10:11:10.779Z,31.50
2018-08-09T10:13:39.030Z,31.60
2018-08-09T10:16:07.235Z,31.70
2018-08-09T10:18:35.419Z,31.90
2018-08-09T10:21:03.700Z,31.90
2018-08-09T10:23:32.355Z,32.10
2018-08-09T10:26:00.601Z,32.30
2018-08-09T10:28:28.844Z,32.40
2018-08-09T10:30:57.234Z,32.40
2018-08-09T10:33:25.473Z,32.30
2018-08-09T10:35:53.734Z,32.30
2018-08-09T10:38:22.041Z,32.30
2018-08-09T10:40:50.295Z,32.50
2018-08-09T10:43:18.570Z,32.70
2018-08-09T10:45:46.837Z,32.90
2018-08-09T10:48:15.090Z,33.10
2018-08-09T10:50:43.402Z,33.40
2018-08-09T10:53:11.639Z,33.40
2018-08-09T10:55:39.922Z,33.50
2018-08-09T10:58:08.173Z,33.60
2018-08-09T11:00:36.410Z,33.70
2018-08-09T11:03:05.042Z,33.70
2018-08-09T11:05:33.234Z,33.70
2018-08-09T11:08:01.686Z,33.90
2018-08-09T11:10:29.863Z,34.00
2018-08-09T11:12:58.026Z,34.20
2018-08-09T11:15:26.194Z,34.40
2018-08-09T11:17:54.382Z,34.60
2018-08-09T11:20:22.562Z,34.60
2018-08-09T11:22:50.746Z,34.70
2018-08-09T11:25:18.922Z,34.80
2018-08-09T11:27:47.108Z,35.00
2018-08-09T11:30:15.325Z,35.10
2018-08-09T11:32:43.526Z,35.30
2018-08-09T11:35:11.739Z,35.40
2018-08-09T11:37:39.905Z,35.50
2018-08-09T11:40:08.558Z,35.60
2018-08-09T11:42:36.741Z,35.70
2018-08-09T11:45:05.683Z,35.80
2018-08-09T11:47:33.855Z,36.00
2018-08-09T11:50:02.060Z,35.90
2018-08-09T11:52:30.219Z,36.00
2018-08-09T11:54:58.575Z,36.10
2018-08-09T11:57:27.059Z,36.10
2018-08-09T11:59:55.273Z,36.30
2018-08-09T12:02:23.451Z,36.20
2018-08-09T12:04:51.606Z,36.20
2018-08-09T12:07:19.774Z,36.30
2018-08-09T12:09:47.971Z,36.40
2018-08-09T12:12:16.131Z,36.60
2018-08-09T12:14:44.330Z,36.60
2018-08-09T12:17:12.557Z,36.60
2018-08-09T12:19:40.758Z,36.60
2018-08-09T12:22:08.955Z,36.60
2018-08-09T12:24:37.197Z,36.40
2018-08-09T12:27:05.454Z,36.40
2018-08-09T12:29:33.554Z,36.50
2018-08-09T12:32:01.728Z,36.50
2018-08-09T12:34:29.886Z,36.40
2018-08-09T12:36:58.056Z,36.30
2018-08-09T12:39:26.305Z,36.30
2018-08-09T12:41:54.582Z,36.60
2018-08-09T12:44:22.767Z,36.40
2018-08-09T12:46:50.948Z,36.40
2018-08-09T12:49:19.120Z,36.70
2018-08-09T12:51:47.298Z,36.90
2018-08-09T12:54:15.506Z,36.70
2018-08-09T12:56:43.685Z,36.80
2018-08-09T12:59:11.850Z,36.90
2018-08-09T13:01:40.283Z,36.90
2018-08-09T13:04:08.504Z,36.50
2018-08-09T13:06:36.711Z,36.30
2018-08-09T13:09:07.338Z,36.60
2018-08-09T13:11:36.122Z,36.70
2018-08-09T13:14:04.986Z,36.80
2018-08-09T13:16:33.186Z,37.10
2018-08-09T13:19:01.462Z,37.20
2018-08-09T13:21:29.642Z,37.30
2018-08-09T13:23:57.806Z,37.30
2018-08-09T13:26:26.054Z,37.30
2018-08-09T13:28:54.246Z,37.30
2018-08-09T13:31:22.418Z,37.40
2018-08-09T13:33:50.606Z,37.50
2018-08-09T13:36:19.018Z,37.70
2018-08-09T13:38:47.177Z,37.50
2018-08-09T13:41:15.339Z,37.50
2018-08-09T13:43:43.557Z,37.70
2018-08-09T13:46:11.733Z,37.90
2018-08-09T13:48:40.194Z,37.80
2018-08-09T13:51:08.374Z,37.80
2018-08-09T13:53:36.604Z,37.70
2018-08-09T13:56:05.025Z,37.70
2018-08-09T13:58:33.264Z,37.60
2018-08-09T14:01:01.679Z,37.70
2018-08-09T14:03:29.962Z,37.90
2018-08-09T14:05:58.137Z,37.90
2018-08-09T14:08:26.319Z,38.00
2018-08-09T14:10:54.778Z,37.80
2018-08-09T14:13:22.955Z,37.80
2018-08-09T14:15:51.126Z,38.00
2018-08-09T14:18:19.310Z,38.10
2018-08-09T14:20:47.798Z,37.80
2018-08-09T14:23:15.971Z,37.70
2018-08-09T14:25:44.130Z,37.70
2018-08-09T14:28:12.316Z,37.90
2018-08-09T14:30:40.731Z,38.00
2018-08-09T14:33:08.966Z,38.00
2018-08-09T14:35:37.172Z,37.80
2018-08-09T14:38:05.365Z,37.70
2018-08-09T14:40:33.577Z,37.80
2018-08-09T14:43:01.753Z,37.60
2018-08-09T14:45:29.914Z,37.60
2018-08-09T14:47:58.087Z,37.60
2018-08-09T14:50:26.293Z,37.60
2018-08-09T14:52:54.508Z,37.40
2018-08-09T14:55:22.675Z,37.30
2018-08-09T14:57:50.856Z,37.20
2018-08-09T15:00:19.839Z,37.00
2018-08-09T15:02:48.298Z,36.90
2018-08-09T15:05:17.294Z,36.70
2018-08-09T15:07:45.489Z,36.60
2018-08-09T15:10:14.875Z,36.40
2018-08-09T15:12:43.080Z,36.40
2018-08-09T15:15:11.832Z,36.40
2018-08-09T15:17:40.167Z,36.40
2018-08-09T15:20:10.511Z,36.50
2018-08-09T15:22:38.720Z,36.60
2018-08-09T15:25:08.171Z,36.60
2018-08-09T15:27:36.402Z,36.60
2018-08-09T15:30:09.478Z,36.60
2018-08-09T15:32:37.660Z,36.50
2018-08-09T15:35:06.066Z,36.40
2018-08-09T15:37:34.260Z,36.40
2018-08-09T15:40:02.440Z,36.30
2018-08-09T15:42:30.754Z,36.10
2018-08-09T15:44:58.949Z,36.00
2018-08-09T15:47:27.281Z,35.90
2018-08-09T15:49:55.385Z,35.90
2018-08-09T15:52:23.589Z,35.80
2018-08-09T15:54:51.758Z,35.70
2018-08-09T15:57:19.948Z,35.60
2018-08-09T15:59:48.294Z,35.60
2018-08-09T16:02:16.553Z,35.60
2018-08-09T16:04:44.808Z,35.60
2018-08-09T16:07:13.031Z,35.60
2018-08-09T16:09:41.296Z,35.60
2018-08-09T16:12:09.491Z,35.60
2018-08-09T16:14:37.784Z,35.50
2018-08-09T16:17:06.099Z,35.50
2018-08-09T16:19:34.395Z,35.60
2018-08-09T16:22:02.956Z,35.60
2018-08-09T16:24:31.216Z,35.60
2018-08-09T16:26:59.419Z,35.50
2018-08-09T16:29:27.610Z,35.50
2018-08-09T16:31:55.786Z,35.50
2018-08-09T16:34:24.329Z,35.20
2018-08-09T16:36:52.493Z,34.90
2018-08-09T16:39:20.686Z,34.80
2018-08-09T16:41:48.874Z,34.60
2018-08-09T16:44:17.076Z,34.50
2018-08-09T16:46:45.294Z,34.30
2018-08-09T16:49:13.512Z,34.10
2018-08-09T16:51:41.810Z,33.80
2018-08-09T16:54:10.107Z,33.70
2018-08-09T16:56:38.378Z,33.50
2018-08-09T16:59:06.470Z,33.40
2018-08-09T17:01:34.634Z,33.30
2018-08-09T17:04:02.823Z,33.10
2018-08-09T17:06:31.298Z,32.90
2018-08-09T17:08:59.656Z,32.70
2018-08-09T17:11:27.798Z,32.60
2018-08-09T17:13:55.988Z,32.50
2018-08-09T17:16:24.168Z,32.40
2018-08-09T17:18:52.415Z,32.30
2018-08-09T17:21:21.587Z,32.20
2018-08-09T17:23:49.922Z,32.10
2018-08-09T17:26:18.270Z,32.00
2018-08-09T17:28:46.603Z,31.70
2018-08-09T17:31:14.974Z,31.60
2018-08-09T17:33:44.287Z,31.40
2018-08-09T17:36:12.505Z,31.20
2018-08-09T17:38:40.728Z,31.20
2018-08-09T17:41:08.932Z,31.10
2018-08-09T17:43:37.103Z,31.00
2018-08-09T17:46:05.970Z,30.90
2018-08-09T17:48:34.271Z,30.60
2018-08-09T17:51:02.453Z,30.40
2018-08-09T17:53:30.631Z,30.30
2018-08-09T17:55:59.229Z,30.20
2018-08-09T17:58:27.662Z,30.00
2018-08-09T18:00:55.939Z,30.00
2018-08-09T18:03:24.305Z,29.90
2018-08-09T18:05:52.586Z,29.80
2018-08-09T18:08:20.754Z,29.70
2018-08-09T18:10:48.935Z,29.70
2018-08-09T18:13:17.395Z,29.50
2018-08-09T18:15:47.271Z,29.50
2018-08-09T18:18:15.463Z,29.40
2018-08-09T18:20:43.646Z,29.30
2018-08-09T18:23:11.854Z,28.70
2018-08-09T18:25:40.190Z,28.60
2018-08-09T18:28:09.494Z,28.50
2018-08-09T18:30:37.772Z,28.30
2018-08-09T18:33:05.985Z,28.10
2018-08-09T18:35:34.179Z,27.90
2018-08-09T18:38:02.386Z,27.80
2018-08-09T18:40:30.798Z,27.80
2018-08-09T18:42:59.201Z,27.50
2018-08-09T18:45:27.378Z,27.10
2018-08-09T18:47:55.947Z,26.80
2018-08-09T18:50:26.806Z,26.60
2018-08-09T18:52:54.970Z,26.50
2018-08-09T18:55:23.147Z,26.20
2018-08-09T18:57:51.314Z,26.00
2018-08-09T19:00:22.741Z,25.80
2018-08-09T19:02:51.210Z,25.70
2018-08-09T19:05:19.386Z,25.60
2018-08-09T19:07:47.602Z,25.60
2018-08-09T19:10:18.766Z,25.50
2018-08-09T19:12:46.955Z,25.50
2018-08-09T19:15:15.653Z,25.40
2018-08-09T19:17:44.134Z,25.30
2018-08-09T19:20:30.415Z,25.20
2018-08-09T19:22:59.246Z,25.20
2018-08-09T19:25:27.563Z,25.10
2018-08-09T19:27:56.151Z,25.10
2018-08-09T19:30:26.268Z,25.00
2018-08-09T19:32:54.654Z,24.90
2018-08-09T19:35:23.174Z,24.80
2018-08-09T19:37:51.350Z,24.70
2018-08-09T19:40:23.898Z,24.60
2018-08-09T19:42:52.110Z,24.50
2018-08-09T19:45:20.542Z,24.50
2018-08-09T19:47:48.924Z,24.60
2018-08-09T19:50:19.065Z,24.50
2018-08-09T19:52:47.246Z,24.50
2018-08-09T19:55:18.979Z,24.40
2018-08-09T19:57:48.078Z,24.30
2018-08-09T20:00:21.678Z,24.20
2018-08-09T20:02:50.264Z,24.10
2018-08-09T20:05:18.459Z,24.10
2018-08-09T20:07:46.659Z,24.00
2018-08-09T20:10:15.351Z,24.00
2018-08-09T20:12:44.372Z,23.90
2018-08-09T20:15:15.687Z,23.80
2018-08-09T20:17:44.870Z,23.80
2018-08-09T20:20:14.591Z,23.70
2018-08-09T20:22:43.333Z,23.60
2018-08-09T20:25:12.914Z,23.60
2018-08-09T20:27:41.702Z,23.60
2018-08-09T20:30:12.849Z,23.50
2018-08-09T20:32:41.647Z,23.50
2018-08-09T20:35:11.984Z,23.50
2018-08-09T20:37:40.402Z,23.50
2018-08-09T20:40:09.761Z,23.00
2018-08-09T20:42:39.255Z,22.70
2018-08-09T20:45:10.146Z,22.30
2018-08-09T20:47:38.492Z,22.30
2018-08-09T20:50:09.515Z,22.30
2018-08-09T20:52:38.253Z,22.30
2018-08-09T20:55:07.331Z,22.30
2018-08-09T20:57:35.701Z,22.40
2018-08-09T21:00:05.818Z,22.40
2018-08-09T21:02:34.366Z,22.40
2018-08-09T21:05:02.740Z,22.40
2018-08-09T21:07:31.010Z,22.40
2018-08-09T21:09:59.211Z,22.40
2018-08-09T21:12:27.504Z,22.40
2018-08-09T21:14:55.815Z,22.40
2018-08-09T21:17:24.171Z,22.40
2018-08-09T21:19:52.458Z,22.30
2018-08-09T21:22:20.653Z,22.40
2018-08-09T21:24:48.862Z,22.40
2018-08-09T21:27:17.330Z,22.30
2018-08-09T21:29:45.677Z,22.40
2018-08-09T21:32:14.261Z,22.40
2018-08-09T21:34:42.507Z,22.40
2018-08-09T21:37:11.039Z,22.40
2018-08-09T21:39:39.216Z,22.40
2018-08-09T21:42:07.403Z,22.40
2018-08-09T21:44:35.895Z,22.40
2018-08-09T21:47:04.528Z,22.40
2018-08-09T21:49:33.112Z,22.50
2018-08-09T21:52:03.086Z,22.40
2018-08-09T21:54:31.287Z,22.40
2018-08-09T21:56:59.618Z,22.40
2018-08-09T21:59:27.781Z,22.30
2018-08-09T22:01:55.964Z,22.40
2018-08-09T22:04:24.142Z,22.40
2018-08-09T22:06:57.666Z,22.40
2018-08-09T22:10:30.188Z,22.40
2018-08-09T22:13:03.813Z,22.40
2018-08-09T22:15:37.511Z,22.40
2018-08-09T22:18:11.338Z,22.30
2018-08-09T22:20:45.038Z,22.30
2018-08-09T22:23:13.450Z,22.30
2018-08-09T22:25:41.616Z,22.30
2018-08-09T22:28:09.786Z,22.40
2018-08-09T22:30:37.946Z,22.40
2018-08-09T22:33:06.126Z,22.40
2018-08-09T22:35:34.378Z,22.40
2018-08-09T22:38:02.555Z,22.40
2018-08-09T22:40:31.336Z,22.40
2018-08-09T22:42:59.506Z,22.30
2018-08-09T22:45:27.662Z,22.30
2018-08-09T22:47:55.846Z,22.20
2018-08-09T22:50:24.033Z,22.30
2018-08-09T22:52:52.251Z,22.20
2018-08-09T22:55:20.465Z,22.20
2018-08-09T22:57:48.692Z,22.10
2018-08-09T23:00:21.182Z,22.10
2018-08-09T23:02:49.740Z,22.00
2018-08-09T23:05:18.263Z,21.90
2018-08-09T23:07:46.674Z,21.80
2018-08-09T23:10:14.854Z,21.70
2018-08-09T23:12:43.550Z,21.70
2018-08-09T23:15:11.737Z,21.50
2018-08-09T23:17:40.178Z,21.50
2018-08-09T23:20:09.211Z,21.40
2018-08-09T23:22:37.380Z,21.40
2018-08-09T23:25:08.852Z,21.20
2018-08-09T23:27:37.022Z,21.20
2018-08-09T23:30:06.710Z,21.10
2018-08-09T23:32:35.184Z,21.10
2018-08-09T23:35:03.983Z,21.10
2018-08-09T23:37:32.196Z,21.10
2018-08-09T23:40:04.350Z,20.90
2018-08-09T23:42:32.516Z,20.90
2018-08-09T23:45:00.698Z,20.90
2018-08-09T23:47:28.874Z,20.80
2018-08-09T23:49:57.042Z,20.80
2018-08-09T23:52:25.505Z,20.90
2018-08-09T23:54:53.710Z,21.00
2018-08-09T23:57:21.882Z,21.00
2018-08-09T23:59:50.074Z,21.00
